Time;durP1;ratioP1;P1;durP2;ratioP2;P2;SDS_P1;SDS_P2;PMS_P1;PMS_P2;Temp;Humidity;BMP_temperature;BMP_pressure;BME280_temperature;BME280_humidity;BME280_pressure;Samples;Min_cycle;Max_cycle;Signal;HPM_P1;HPM_P2
2022/04/15 00:00:33;;;;;;;6.32;3.70;;;7.80;99.90;;;;;;5092199;28;20466;-73
2022/04/15 00:02:58;;;;;;;6.68;4.68;;;7.90;99.90;;;;;;5092310;28;20043;-73
2022/04/15 00:05:34;;;;;;;6.40;4.18;;;7.90;99.90;;;;;;5111018;28;20093;-73
2022/04/15 00:08:01;;;;;;;6.95;3.85;;;7.90;99.90;;;;;;5090827;28;20044;-73
2022/04/15 00:10:28;;;;;;;5.13;3.60;;;8.00;99.90;;;;;;5110835;28;20086;-73
2022/04/15 00:12:54;;;;;;;5.05;4.13;;;8.00;99.90;;;;;;5092847;28;20142;-74
2022/04/15 00:15:20;;;;;;;14.50;4.72;;;8.00;99.90;;;;;;5113891;28;20474;-73
2022/04/15 00:17:46;;;;;;;7.07;4.18;;;8.00;99.90;;;;;;5096382;28;20047;-73
2022/04/15 00:20:12;;;;;;;9.45;4.60;;;8.00;99.90;;;;;;5113133;28;20039;-73
2022/04/15 00:22:38;;;;;;;4.85;3.63;;;8.10;99.90;;;;;;5084335;28;20043;-73
2022/04/15 00:25:05;;;;;;;10.05;4.30;;;8.10;99.90;;;;;;5104131;28;20149;-73
2022/04/15 00:27:30;;;;;;;7.43;4.35;;;8.10;99.90;;;;;;5100387;28;20047;-73
2022/04/15 00:29:56;;;;;;;5.82;3.58;;;8.10;99.90;;;;;;5095226;28;20072;-73
2022/04/15 00:32:21;;;;;;;7.00;3.70;;;8.10;99.90;;;;;;5087864;28;20062;-73
2022/04/15 00:34:47;;;;;;;6.15;4.35;;;8.10;99.90;;;;;;5100896;27;20493;-73
2022/04/15 00:37:12;;;;;;;4.80;3.80;;;8.10;99.90;;;;;;5089579;28;20087;-73
2022/04/15 00:39:45;;;;;;;6.95;3.67;;;8.10;99.90;;;;;;5095982;28;20067;-73
2022/04/15 00:42:10;;;;;;;;;;;8.10;99.90;;;;;;5096671;28;20044;-73
2022/04/15 00:44:39;;;;;;;6.32;2.70;;;8.20;99.90;;;;;;5093964;28;19924;-74
2022/04/15 00:47:27;;;;;;;5.95;2.75;;;8.20;99.90;;;;;;5092476;28;20051;-73
2022/04/15 00:49:52;;;;;;;4.63;2.65;;;8.30;99.90;;;;;;5092545;28;20556;-73
2022/04/15 00:52:21;;;;;;;9.80;3.08;;;8.40;99.90;;;;;;5075722;28;20064;-73
2022/04/15 00:54:51;;;;;;;7.40;3.45;;;8.40;99.90;;;;;;5093840;28;20040;-73
2022/04/15 00:57:23;;;;;;;4.35;2.90;;;8.40;99.90;;;;;;5092837;28;20093;-73
2022/04/15 00:59:51;;;;;;;5.47;2.83;;;8.50;99.90;;;;;;5093721;28;20044;-73
2022/04/15 01:02:18;;;;;;;6.30;2.80;;;8.60;99.90;;;;;;5075263;28;20454;-73
2022/04/15 01:04:44;;;;;;;5.15;2.35;;;8.60;99.90;;;;;;5074769;28;20126;-73
2022/04/15 01:07:14;;;;;;;9.73;2.92;;;8.60;99.90;;;;;;5093310;28;20158;-73
2022/04/15 01:09:43;;;;;;;6.57;2.85;;;8.60;99.90;;;;;;5075119;28;20059;-73
2022/04/15 01:12:10;;;;;;;4.47;2.25;;;8.60;99.90;;;;;;5073992;28;20079;-73
2022/04/15 01:14:39;;;;;;;7.68;2.72;;;8.60;99.90;;;;;;5093134;28;20365;-73
2022/04/15 01:17:05;;;;;;;8.20;2.75;;;8.60;99.90;;;;;;5092393;28;20044;-74
2022/04/15 01:19:30;;;;;;;3.47;2.65;;;8.70;99.90;;;;;;5092759;28;20556;-73
2022/04/15 01:22:01;;;;;;;8.73;3.70;;;8.70;99.90;;;;;;5092716;28;20394;-73
2022/04/15 01:24:29;;;;;;;7.80;2.80;;;8.60;99.90;;;;;;5074108;28;20115;-73
2022/04/15 01:26:54;;;;;;;11.32;3.10;;;8.70;99.90;;;;;;5092663;28;20054;-73
2022/04/15 01:29:20;;;;;;;7.35;3.25;;;8.70;99.90;;;;;;5092674;28;20040;-73
2022/04/15 01:31:45;;;;;;;6.43;3.03;;;8.70;99.90;;;;;;5091798;28;20609;-74
2022/04/15 01:34:11;;;;;;;5.82;2.97;;;8.70;99.90;;;;;;5074156;28;20036;-73
2022/04/15 01:36:36;;;;;;;9.32;3.55;;;8.70;99.90;;;;;;5092212;28;20100;-73
2022/04/15 01:39:02;;;;;;;10.43;3.40;;;8.70;99.90;;;;;;5073280;28;20054;-73
2022/04/15 01:41:27;;;;;;;9.15;3.08;;;8.70;99.90;;;;;;5074589;28;20123;-73
2022/04/15 01:43:53;;;;;;;7.85;3.33;;;8.70;99.90;;;;;;5092374;28;20372;-73
2022/04/15 01:46:18;;;;;;;8.40;3.17;;;8.70;99.90;;;;;;5073814;28;20048;-73
2022/04/15 01:48:44;;;;;;;6.32;3.35;;;8.70;99.90;;;;;;5074735;28;20073;-73
2022/04/15 01:51:09;;;;;;;8.50;4.15;;;8.70;99.90;;;;;;5073901;28;20858;-74
2022/04/15 01:53:35;;;;;;;7.88;3.20;;;8.70;99.90;;;;;;5092047;28;20483;-73
2022/04/15 01:56:01;;;;;;;8.48;3.50;;;8.70;99.90;;;;;;5092204;28;20044;-73
2022/04/15 01:58:26;;;;;;;12.70;3.78;;;8.70;99.90;;;;;;5092217;28;20040;-73
2022/04/15 02:00:52;;;;;;;11.57;3.97;;;8.70;99.90;;;;;;5073103;28;20039;-74
2022/04/15 02:03:18;;;;;;;9.10;4.78;;;8.70;99.90;;;;;;5094382;28;20055;-73
2022/04/15 02:05:43;;;;;;;8.73;4.25;;;8.70;99.90;;;;;;5087407;28;20142;-73
2022/04/15 02:08:09;;;;;;;12.38;4.93;;;8.70;99.90;;;;;;5105957;28;20452;-74
2022/04/15 02:10:34;;;;;;;13.80;5.38;;;8.70;99.90;;;;;;5092386;28;20056;-73
2022/04/15 02:13:00;;;;;;;11.13;5.60;;;8.70;99.90;;;;;;5092317;28;20035;-73
2022/04/15 02:15:25;;;;;;;13.80;5.75;;;8.70;99.90;;;;;;5091352;28;20108;-73
2022/04/15 02:17:51;;;;;;;10.55;5.90;;;8.70;99.90;;;;;;5073566;28;20048;-73
2022/04/15 02:20:17;;;;;;;9.93;5.93;;;8.70;99.90;;;;;;5092151;28;20119;-73
2022/04/15 02:22:42;;;;;;;8.95;5.28;;;8.70;99.90;;;;;;5091332;28;20047;-73
2022/04/15 02:25:08;;;;;;;10.23;4.90;;;8.70;99.90;;;;;;5091667;28;20043;-73
2022/04/15 02:27:34;;;;;;;8.35;4.88;;;8.70;99.90;;;;;;5091118;28;20043;-73
2022/04/15 02:29:59;;;;;;;10.13;5.07;;;8.70;99.90;;;;;;5091450;28;20036;-74
2022/04/15 02:32:25;;;;;;;13.60;5.68;;;8.70;99.90;;;;;;5073537;28;20062;-73
2022/04/15 02:34:54;;;;;;;12.93;5.32;;;8.70;99.90;;;;;;5090792;28;20040;-73
2022/04/15 02:37:19;;;;;;;11.15;6.07;;;8.60;99.90;;;;;;5073171;28;20048;-73
2022/04/15 02:39:45;;;;;;;10.38;6.25;;;8.60;99.90;;;;;;5073521;28;20101;-73
2022/04/15 02:42:10;;;;;;;15.07;8.18;;;8.60;99.90;;;;;;5090478;28;20093;-73
2022/04/15 02:44:37;;;;;;;16.35;8.80;;;8.60;99.90;;;;;;5091569;28;20048;-73
2022/04/15 02:47:03;;;;;;;15.25;10.40;;;8.60;99.90;;;;;;5091331;28;20047;-73
2022/04/15 02:49:30;;;;;;;14.63;10.18;;;8.50;99.90;;;;;;5072503;28;20055;-73
2022/04/15 02:51:56;;;;;;;13.85;10.25;;;8.50;99.90;;;;;;5072977;28;20396;-73
2022/04/15 02:54:25;;;;;;;15.52;11.43;;;8.50;99.90;;;;;;5073058;28;20048;-73
2022/04/15 02:56:51;;;;;;;12.18;10.93;;;8.50;99.90;;;;;;5072305;28;20051;-73
2022/04/15 02:59:20;;;;;;;16.88;12.57;;;8.40;99.90;;;;;;5073317;28;20047;-73
2022/04/15 03:01:46;;;;;;;12.50;10.50;;;8.40;99.90;;;;;;5072988;28;20044;-73
2022/04/15 03:04:11;;;;;;;13.27;10.80;;;8.40;99.90;;;;;;5072161;28;20048;-73
2022/04/15 03:06:37;;;;;;;15.70;10.85;;;8.30;99.90;;;;;;5073191;28;20036;-73
2022/04/15 03:09:03;;;;;;;11.45;9.27;;;8.30;99.90;;;;;;5090915;28;20407;-73
2022/04/15 03:11:29;;;;;;;8.73;7.57;;;8.20;99.90;;;;;;5072222;28;20044;-73
2022/04/15 03:13:54;;;;;;;8.90;7.20;;;8.20;99.90;;;;;;5072652;28;20048;-74
2022/04/15 03:16:20;;;;;;;7.13;6.40;;;8.20;99.90;;;;;;5091064;28;20156;-74
2022/04/15 03:18:45;;;;;;;9.60;6.03;;;8.20;99.90;;;;;;5072309;28;20052;-72
2022/04/15 03:21:11;;;;;;;9.23;5.88;;;8.10;99.90;;;;;;5090756;28;20539;-74
2022/04/15 03:23:42;;;;;;;10.90;6.15;;;8.10;99.90;;;;;;5073082;28;20067;-74
2022/04/15 03:26:07;;;;;;;9.23;5.82;;;8.10;99.90;;;;;;5090318;28;20482;-73
2022/04/15 03:28:33;;;;;;;11.15;5.78;;;8.00;99.90;;;;;;5072826;28;20135;-73
2022/04/15 03:30:58;;;;;;;6.78;5.50;;;8.00;99.90;;;;;;5071897;28;20051;-73
2022/04/15 03:33:24;;;;;;;6.55;4.97;;;8.00;99.90;;;;;;5072718;28;20048;-73
2022/04/15 03:35:49;;;;;;;6.32;3.72;;;8.00;99.90;;;;;;5072724;28;20071;-73
2022/04/15 03:38:15;;;;;;;4.72;4.28;;;8.00;99.90;;;;;;5071920;28;20088;-73
2022/04/15 03:40:40;;;;;;;5.25;4.32;;;7.90;99.90;;;;;;5090739;28;20509;-74
2022/04/15 03:43:06;;;;;;;4.68;3.60;;;7.90;99.90;;;;;;5090532;28;20044;-74
2022/04/15 03:45:32;;;;;;;4.22;3.85;;;7.80;99.90;;;;;;5071913;28;20039;-74
2022/04/15 03:47:58;;;;;;;4.38;4.07;;;7.80;99.90;;;;;;5091138;28;20051;-73
2022/04/15 03:50:24;;;;;;;4.45;4.05;;;7.80;99.90;;;;;;5094934;28;20094;-73
2022/04/15 03:52:50;;;;;;;4.47;4.07;;;7.80;99.90;;;;;;5075926;28;20079;-73
2022/04/15 03:55:21;;;;;;;5.85;3.72;;;7.80;99.90;;;;;;5076341;28;20067;-73
2022/04/15 03:57:47;;;;;;;4.78;4.32;;;7.70;99.90;;;;;;5094872;28;20090;-73
2022/04/15 04:00:15;;;;;;;6.20;3.95;;;7.70;99.90;;;;;;5075754;28;20109;-73
2022/04/15 04:02:46;;;;;;;4.43;3.63;;;7.70;99.90;;;;;;5076212;28;20063;-73
2022/04/15 04:05:13;;;;;;;6.55;4.30;;;7.60;99.90;;;;;;5094220;28;20551;-73
2022/04/15 04:07:39;;;;;;;6.80;3.67;;;7.60;99.90;;;;;;5075554;28;20505;-73
2022/04/15 04:10:09;;;;;;;4.20;3.83;;;7.60;99.90;;;;;;5094433;28;20097;-73
2022/04/15 04:12:34;;;;;;;3.67;3.35;;;7.60;99.90;;;;;;5076173;28;20383;-73
2022/04/15 04:15:04;;;;;;;4.57;2.65;;;7.60;99.90;;;;;;5093454;28;20058;-74
2022/04/15 04:17:30;;;;;;;3.38;2.72;;;7.60;99.90;;;;;;5094149;28;20431;-74
2022/04/15 04:19:56;;;;;;;4.03;2.70;;;7.60;99.90;;;;;;5093917;28;20127;-73
2022/04/15 04:22:27;;;;;;;5.53;2.47;;;7.60;99.90;;;;;;5075571;28;20071;-73
2022/04/15 04:24:52;;;;;;;2.95;2.65;;;7.50;99.90;;;;;;5078800;28;20073;-74
2022/04/15 04:27:18;;;;;;;6.20;2.55;;;7.50;99.90;;;;;;5084192;28;20079;-73
2022/04/15 04:29:43;;;;;;;4.65;1.85;;;7.50;99.90;;;;;;5103112;28;20067;-73
2022/04/15 04:32:09;;;;;;;2.72;2.17;;;7.50;99.90;;;;;;5095954;28;20070;-73
2022/04/15 04:34:34;;;;;;;2.67;2.22;;;7.50;99.90;;;;;;5109342;28;20048;-73
2022/04/15 04:37:00;;;;;;;3.15;2.13;;;7.50;99.90;;;;;;5093444;28;20040;-74
2022/04/15 04:39:27;;;;;;;3.03;2.47;;;7.50;99.90;;;;;;5099136;28;20057;-73
2022/04/15 04:41:53;;;;;;;5.28;3.03;;;7.50;99.90;;;;;;5113363;28;20051;-73
2022/04/15 04:44:19;;;;;;;5.85;2.33;;;7.60;99.90;;;;;;5114268;28;20048;-73
2022/04/15 04:46:44;;;;;;;2.33;1.88;;;7.50;99.90;;;;;;5114193;28;20402;-73
2022/04/15 04:49:10;;;;;;;5.07;2.75;;;7.60;99.90;;;;;;5094678;28;20047;-73
2022/04/15 04:51:36;;;;;;;4.60;2.53;;;7.50;99.90;;;;;;5113851;28;20465;-73
2022/04/15 04:54:01;;;;;;;3.35;2.58;;;7.50;99.90;;;;;;5111975;28;20047;-73
2022/04/15 04:56:27;;;;;;;4.13;2.38;;;7.60;99.90;;;;;;5092901;28;20043;-73
2022/04/15 04:58:52;;;;;;;2.88;1.98;;;7.50;99.90;;;;;;5099279;27;20048;-74
2022/04/15 05:01:18;;;;;;;4.00;2.25;;;7.50;99.90;;;;;;5085355;28;20158;-73
2022/04/15 05:03:43;;;;;;;5.97;2.53;;;7.50;99.90;;;;;;5094757;28;20044;-73
2022/04/15 05:06:09;;;;;;;3.92;2.08;;;7.50;99.90;;;;;;5093114;28;20044;-74
2022/04/15 05:08:35;;;;;;;2.97;2.22;;;7.60;99.90;;;;;;5088870;28;20516;-73
2022/04/15 05:11:00;;;;;;;3.10;2.28;;;7.50;99.90;;;;;;5112904;28;20044;-73
2022/04/15 05:13:26;;;;;;;3.30;2.20;;;7.50;99.90;;;;;;5094724;28;20398;-73
2022/04/15 05:15:51;;;;;;;3.20;2.20;;;7.50;99.90;;;;;;5077608;28;20048;-73
2022/04/15 05:18:17;;;;;;;4.93;2.70;;;7.50;99.90;;;;;;5096464;28;20036;-73
2022/04/15 05:20:42;;;;;;;4.68;2.58;;;7.40;99.90;;;;;;5112759;28;20039;-73
2022/04/15 05:23:08;;;;;;;3.38;2.72;;;7.40;99.90;;;;;;5081135;28;20051;-73
2022/04/15 05:25:33;;;;;;;3.03;2.72;;;7.40;99.90;;;;;;5094509;28;20550;-73
2022/04/15 05:27:59;;;;;;;3.95;3.15;;;7.40;99.90;;;;;;5094935;28;20524;-73
2022/04/15 05:30:25;;;;;;;3.25;2.95;;;7.40;99.90;;;;;;5094108;28;20394;-73
2022/04/15 05:32:51;;;;;;;10.40;2.95;;;7.40;99.90;;;;;;5094711;28;20085;-73
2022/04/15 05:35:16;;;;;;;4.35;3.20;;;7.40;99.90;;;;;;5113012;28;20040;-73
2022/04/15 05:37:42;;;;;;;3.30;2.97;;;7.50;99.90;;;;;;5112661;28;20039;-73
2022/04/15 05:40:08;;;;;;;4.13;3.55;;;7.40;99.90;;;;;;5113096;28;20043;-73
2022/04/15 05:42:34;;;;;;;2.92;2.72;;;7.50;99.90;;;;;;5094810;28;20039;-74
2022/04/15 05:44:59;;;;;;;6.68;3.70;;;7.50;99.90;;;;;;5112112;28;20177;-74
2022/04/15 05:47:25;;;;;;;3.72;3.33;;;7.50;99.90;;;;;;5094794;28;20051;-73
2022/04/15 05:49:50;;;;;;;4.00;3.60;;;7.50;99.90;;;;;;5112364;28;20051;-73
2022/04/15 05:52:16;;;;;;;3.28;3.05;;;7.50;99.90;;;;;;5110110;28;20468;-73
2022/04/15 05:54:41;;;;;;;3.90;3.20;;;7.50;99.90;;;;;;5094662;28;20034;-73
2022/04/15 05:57:07;;;;;;;4.70;3.30;;;7.50;99.90;;;;;;5095204;28;20044;-73
2022/04/15 05:59:33;;;;;;;3.80;3.50;;;7.50;99.90;;;;;;5091669;28;20406;-74
2022/04/15 06:01:58;;;;;;;5.80;4.20;;;7.50;99.90;;;;;;5075129;28;20036;-74
2022/04/15 06:04:24;;;;;;;7.25;3.83;;;7.60;99.90;;;;;;5082248;28;20040;-74
2022/04/15 06:06:49;;;;;;;3.80;3.47;;;7.60;99.90;;;;;;5104185;28;20096;-74
2022/04/15 06:09:15;;;;;;;6.43;3.90;;;7.70;99.90;;;;;;5073780;28;20044;-74
2022/04/15 06:11:41;;;;;;;4.38;3.92;;;7.70;99.90;;;;;;5091801;28;20044;-74
2022/04/15 06:14:07;;;;;;;5.22;4.60;;;7.70;99.90;;;;;;5111676;28;20138;-75
2022/04/15 06:16:37;;;;;;;10.32;4.88;;;7.70;99.90;;;;;;5093931;28;20044;-74
2022/04/15 06:19:03;;;;;;;5.10;4.53;;;7.80;99.90;;;;;;5111955;28;20039;-74
2022/04/15 06:21:28;;;;;;;5.45;4.60;;;7.80;99.90;;;;;;5093453;28;20092;-73
2022/04/15 06:23:54;;;;;;;6.75;5.03;;;7.80;99.90;;;;;;5112191;28;20048;-73
2022/04/15 06:26:20;;;;;;;5.55;4.78;;;7.90;99.90;;;;;;5112340;28;20036;-73
2022/04/15 06:28:45;;;;;;;6.35;5.32;;;7.90;99.90;;;;;;5111414;28;20082;-73
2022/04/15 06:31:11;;;;;;;6.63;5.43;;;7.90;99.90;;;;;;5093701;28;20035;-73
2022/04/15 06:33:41;;;;;;;7.25;5.32;;;7.90;99.90;;;;;;5093715;28;20076;-74
2022/04/15 06:36:07;;;;;;;7.75;6.07;;;8.00;99.90;;;;;;5093788;28;20048;-74
2022/04/15 06:38:32;;;;;;;6.95;5.50;;;8.00;99.90;;;;;;5093493;28;20403;-74
2022/04/15 06:40:58;;;;;;;9.07;7.00;;;8.00;99.90;;;;;;5092977;28;20758;-74
2022/04/15 06:43:24;;;;;;;7.20;5.82;;;8.00;99.90;;;;;;5093744;28;20614;-74
2022/04/15 06:45:49;;;;;;;8.55;5.82;;;8.10;99.90;;;;;;5093566;28;20051;-74
2022/04/15 06:48:15;;;;;;;7.43;6.25;;;8.10;99.90;;;;;;5110748;28;20047;-74
2022/04/15 06:50:41;;;;;;;9.02;7.20;;;8.10;99.90;;;;;;5111723;28;20063;-73
2022/04/15 06:53:07;;;;;;;12.60;8.18;;;8.10;99.90;;;;;;5093045;28;20063;-74
2022/04/15 06:55:32;;;;;;;10.85;7.28;;;8.10;99.90;;;;;;5092949;28;20104;-74
2022/04/15 06:58:01;;;;;;;17.15;8.63;;;8.20;99.90;;;;;;5092783;28;20040;-74
2022/04/15 07:00:27;;;;;;;14.43;9.13;;;8.20;99.90;;;;;;5090491;28;20122;-74
2022/04/15 07:02:52;;;;;;;12.40;7.53;;;8.20;99.90;;;;;;5100998;28;20469;-74
2022/04/15 07:05:18;;;;;;;13.27;8.73;;;8.20;99.90;;;;;;5102819;28;20039;-75
2022/04/15 07:07:44;;;;;;;14.23;8.77;;;8.20;99.90;;;;;;5093421;28;20125;-74
2022/04/15 07:10:11;;;;;;;11.82;7.72;;;8.20;99.90;;;;;;5092246;28;20074;-74
2022/04/15 07:12:37;;;;;;;11.77;7.55;;;8.20;99.90;;;;;;5092621;28;20039;-74
2022/04/15 07:15:04;;;;;;;9.27;7.03;;;8.30;99.90;;;;;;5110089;28;20056;-74
2022/04/15 07:17:29;;;;;;;12.45;7.10;;;8.40;99.90;;;;;;5083745;28;20101;-73
2022/04/15 07:19:55;;;;;;;13.30;6.57;;;8.50;99.90;;;;;;5086690;28;20068;-74
2022/04/15 07:22:21;;;;;;;8.82;5.97;;;8.60;99.90;;;;;;5090860;28;20509;-76
2022/04/15 07:24:48;;;;;;;9.70;6.00;;;8.70;99.90;;;;;;5089725;28;20044;-75
2022/04/15 07:27:15;;;;;;;12.32;6.53;;;8.80;99.90;;;;;;5090531;28;20062;-76
2022/04/15 07:29:41;;;;;;;7.38;5.32;;;8.90;99.90;;;;;;5091966;28;20521;-76
2022/04/15 07:32:07;;;;;;;13.25;6.25;;;8.90;99.90;;;;;;5109897;28;20044;-75
2022/04/15 07:34:37;;;;;;;14.65;6.25;;;8.90;99.90;;;;;;5111188;28;20058;-74
2022/04/15 07:37:06;;;;;;;11.27;5.90;;;8.90;99.90;;;;;;5110394;28;20063;-75
2022/04/15 07:39:49;;;;;;;11.57;5.57;;;8.90;99.90;;;;;;5110806;28;20059;-75
2022/04/15 07:42:15;;;;;;;10.30;5.25;;;8.80;99.90;;;;;;5110740;28;20063;-74
2022/04/15 07:44:44;;;;;;;12.52;5.85;;;8.80;99.90;;;;;;5091563;28;20134;-75
2022/04/15 07:47:10;;;;;;;7.63;5.13;;;8.80;99.90;;;;;;5096708;28;20126;-74
2022/04/15 07:49:56;;;;;;;18.05;6.07;;;8.80;99.90;;;;;;5072169;28;20127;-74
2022/04/15 07:52:21;;;;;;;6.80;5.03;;;8.80;99.90;;;;;;5089567;28;20052;-75
2022/04/15 07:54:48;;;;;;;7.45;5.15;;;8.80;99.90;;;;;;5090549;28;20105;-74
2022/04/15 07:57:16;;;;;;;11.32;5.70;;;8.80;99.90;;;;;;5072667;28;20121;-74
2022/04/15 07:59:42;;;;;;;10.45;5.30;;;8.90;99.90;;;;;;5095257;28;20409;-74
2022/04/15 08:02:07;;;;;;;11.48;5.35;;;8.90;99.90;;;;;;5071295;28;20047;-74
2022/04/15 08:04:36;;;;;;;7.07;5.05;;;8.90;99.90;;;;;;5095062;28;20039;-75
2022/04/15 08:07:02;;;;;;;10.10;4.97;;;9.00;99.90;;;;;;5083329;28;20051;-71
2022/04/15 08:09:27;;;;;;;11.73;5.20;;;9.00;99.90;;;;;;5079721;28;20043;-73
2022/04/15 08:11:54;;;;;;;7.22;5.13;;;9.10;99.90;;;;;;5110647;28;20050;-73
2022/04/15 08:14:20;;;;;;;8.95;4.43;;;9.20;99.90;;;;;;5089316;28;20048;-72
2022/04/15 08:16:45;;;;;;;7.35;4.45;;;9.20;99.90;;;;;;5089021;28;20544;-75
2022/04/15 08:19:11;;;;;;;10.10;4.53;;;9.30;99.90;;;;;;5107296;28;20040;-73
2022/04/15 08:21:37;;;;;;;8.25;5.03;;;9.30;99.90;;;;;;5091790;28;20520;-73
2022/04/15 08:24:03;;;;;;;4.82;4.10;;;9.40;99.90;;;;;;5090027;28;20165;-73
2022/04/15 08:26:29;;;;;;;8.30;5.05;;;9.30;99.90;;;;;;5099974;28;20685;-73
2022/04/15 08:28:54;;;;;;;9.27;4.63;;;9.30;99.90;;;;;;5087843;28;20051;-74
2022/04/15 08:31:20;;;;;;;6.22;4.85;;;9.20;99.90;;;;;;5095692;28;20674;-73
2022/04/15 08:33:46;;;;;;;9.73;4.85;;;9.20;99.90;;;;;;5071135;28;20134;-73
2022/04/15 08:36:12;;;;;;;11.10;5.13;;;9.10;99.90;;;;;;5074617;28;20044;-75
2022/04/15 08:38:38;;;;;;;7.35;5.07;;;9.10;99.90;;;;;;5093013;28;20067;-74
2022/04/15 08:41:05;;;;;;;6.10;4.47;;;9.10;99.90;;;;;;5093370;28;20146;-73
2022/04/15 08:43:30;;;;;;;9.65;4.95;;;9.20;99.90;;;;;;5085754;28;20054;-73
2022/04/15 08:45:56;;;;;;;9.57;4.30;;;9.50;99.90;;;;;;5085276;28;20059;-72
2022/04/15 08:48:23;;;;;;;10.65;5.43;;;9.70;99.90;;;;;;5078776;28;20055;-77
2022/04/15 08:50:50;;;;;;;5.68;4.00;;;9.90;99.90;;;;;;5078259;28;20056;-72
2022/04/15 08:53:18;;;;;;;4.20;3.13;;;10.10;99.90;;;;;;5093775;28;20465;-72
2022/04/15 08:55:44;;;;;;;6.95;3.25;;;10.40;99.90;;;;;;5085566;28;20044;-70
2022/04/15 08:58:10;;;;;;;9.57;4.50;;;10.70;99.90;;;;;;5095256;28;20419;-70
2022/04/15 09:00:36;;;;;;;8.73;4.25;;;10.90;99.90;;;;;;5083966;28;20146;-70
2022/04/15 09:03:03;;;;;;;6.75;4.05;;;10.90;99.90;;;;;;5109167;28;20047;-71
2022/04/15 09:05:29;;;;;;;5.18;4.00;;;10.90;99.90;;;;;;5103498;28;20127;-70
2022/04/15 09:08:10;;;;;;;6.97;4.00;;;10.70;99.90;;;;;;5091201;28;20135;-71
2022/04/15 09:10:39;;;;;;;6.15;3.78;;;10.70;99.90;;;;;;5111839;28;20209;-71
2022/04/15 09:13:05;;;;;;;5.30;3.53;;;10.80;99.90;;;;;;5112761;28;20055;-71
2022/04/15 09:15:31;;;;;;;6.82;3.20;;;10.90;99.90;;;;;;5094485;28;20054;-70
2022/04/15 09:18:00;;;;;;;7.05;4.07;;;11.10;99.90;;;;;;5092487;28;20146;-71
2022/04/15 09:20:30;;;;;;;5.10;4.10;;;11.40;99.90;;;;;;5092653;28;20056;-70
2022/04/15 09:22:56;;;;;;;9.23;4.43;;;11.60;99.90;;;;;;5076594;28;20528;-71
2022/04/15 09:25:25;;;;;;;6.15;4.38;;;11.60;99.90;;;;;;5093673;28;20044;-71
2022/04/15 09:27:56;;;;;;;5.18;4.55;;;11.70;99.90;;;;;;5091027;28;20134;-71
2022/04/15 09:30:32;;;;;;;6.03;4.20;;;11.50;99.90;;;;;;5093886;28;20047;-74
2022/04/15 09:33:01;;;;;;;8.70;4.97;;;11.40;99.90;;;;;;5111666;28;20088;-69
2022/04/15 09:35:26;;;;;;;9.15;5.35;;;11.40;99.90;;;;;;5103627;27;20122;-69
2022/04/15 09:37:52;;;;;;;5.78;5.07;;;11.30;99.90;;;;;;5091369;28;20177;-70
2022/04/15 09:40:26;;;;;;;9.80;5.18;;;11.30;99.90;;;;;;5093140;28;20505;-69
2022/04/15 09:42:56;;;;;;;7.00;4.95;;;11.20;99.90;;;;;;5112706;28;20115;-69
2022/04/15 09:45:24;;;;;;;6.95;5.00;;;11.10;99.90;;;;;;5092798;28;20039;-70
2022/04/15 09:47:54;;;;;;;5.18;4.55;;;10.90;99.90;;;;;;5113058;28;20390;-68
2022/04/15 09:50:34;;;;;;;8.50;5.47;;;10.80;99.90;;;;;;5112698;28;20107;-69
2022/04/15 09:53:15;;;;;;;9.02;5.05;;;10.60;99.90;;;;;;5093558;28;20055;-70
2022/04/15 09:55:43;;;;;;;5.70;4.43;;;10.60;99.90;;;;;;5112765;28;20047;-70
2022/04/15 09:58:16;;;;;;;9.55;5.78;;;10.70;99.90;;;;;;5111505;28;20513;-67
2022/04/15 10:00:48;;;;;;;8.63;5.38;;;10.70;99.90;;;;;;5112773;28;20051;-67
2022/04/15 10:03:22;;;;;;;7.80;4.93;;;10.70;99.90;;;;;;5094423;28;20531;-67
2022/04/15 10:05:56;;;;;;;7.57;4.93;;;10.70;99.90;;;;;;5111778;28;20047;-67
2022/04/15 10:08:23;;;;;;;9.55;6.22;;;10.70;99.90;;;;;;5112457;28;20562;-67
2022/04/15 10:10:49;;;;;;;6.20;5.43;;;10.70;99.90;;;;;;5112694;28;20035;-67
2022/04/15 10:13:16;;;;;;;6.97;5.07;;;10.80;99.90;;;;;;5111721;28;20047;-69
2022/04/15 10:15:42;;;;;;;7.65;5.00;;;10.80;99.90;;;;;;5094372;28;20099;-69
2022/04/15 10:18:08;;;;;;;6.30;4.70;;;10.80;99.90;;;;;;5112069;28;20375;-69
2022/04/15 10:20:34;;;;;;;5.93;4.93;;;10.80;99.90;;;;;;5111498;28;20426;-69
2022/04/15 10:23:03;;;;;;;7.80;4.47;;;10.90;99.90;;;;;;5093776;28;20830;-69
2022/04/15 10:25:30;;;;;;;4.97;4.10;;;10.80;99.90;;;;;;5112037;28;20046;-69
2022/04/15 10:28:16;;;;;;;4.70;4.25;;;10.90;99.90;;;;;;5111134;28;20459;-69
2022/04/15 10:30:52;;;;;;;6.20;4.25;;;10.90;99.90;;;;;;5094118;28;20075;-69
2022/04/15 10:33:29;;;;;;;5.28;3.92;;;10.90;99.90;;;;;;5093052;28;20123;-69
2022/04/15 10:36:19;;;;;;;10.30;5.10;;;10.90;99.90;;;;;;5093264;28;20048;-69
2022/04/15 10:39:03;;;;;;;7.70;4.85;;;10.90;99.90;;;;;;5116330;27;20062;-69
2022/04/15 10:41:41;;;;;;;8.80;4.25;;;10.90;99.90;;;;;;5082560;28;20134;-70
2022/04/15 10:44:11;;;;;;;7.93;5.40;;;10.80;99.90;;;;;;5108475;28;20035;-70
2022/04/15 10:46:37;;;;;;;6.82;5.68;;;10.80;99.90;;;;;;5114108;27;20497;-69
2022/04/15 10:49:19;;;;;;;7.63;4.82;;;10.80;99.90;;;;;;5111286;27;20043;-70
2022/04/15 10:51:45;;;;;;;7.25;5.20;;;10.70;99.90;;;;;;5097210;27;20395;-70
2022/04/15 10:54:30;;;;;;;7.78;4.70;;;10.70;99.90;;;;;;5084376;28;20055;-70
2022/04/15 10:57:01;;;;;;;7.15;5.18;;;10.70;99.90;;;;;;5081498;28;20063;-70
2022/04/15 11:02:24;;;;;;;4.82;4.30;;;10.50;99.90;;;;;;5081711;28;20486;-70
2022/04/15 11:04:51;;;;;;;7.93;5.03;;;10.50;99.90;;;;;;5104873;28;20062;-70
2022/04/15 11:07:26;;;;;;;8.40;4.78;;;10.50;99.90;;;;;;5098918;28;20040;-69
2022/04/15 11:09:52;;;;;;;5.22;4.63;;;10.50;99.90;;;;;;5074595;28;20076;-70
2022/04/15 11:12:32;;;;;;;6.07;4.40;;;10.50;99.90;;;;;;5100042;28;20040;-70
2022/04/15 11:14:58;;;;;;;8.77;5.00;;;10.60;99.90;;;;;;5072564;28;20052;-70
2022/04/15 11:17:44;;;;;;;6.32;4.93;;;10.50;99.90;;;;;;5075529;28;20051;-70
2022/04/15 11:20:10;;;;;;;7.05;4.20;;;10.50;99.90;;;;;;5081700;28;20063;-69
2022/04/15 11:22:39;;;;;;;6.25;4.53;;;10.50;99.90;;;;;;5085141;28;20047;-71
2022/04/15 11:25:09;;;;;;;10.15;5.38;;;10.40;99.90;;;;;;5091994;28;20055;-70
2022/04/15 11:27:40;;;;;;;11.65;5.07;;;10.40;99.90;;;;;;5111110;28;20390;-69
2022/04/15 11:30:16;;;;;;;8.65;4.70;;;10.40;99.90;;;;;;5103624;28;20402;-69
2022/04/15 11:32:53;;;;;;;8.48;4.75;;;10.30;99.90;;;;;;5084444;28;20538;-69
2022/04/15 11:35:27;;;;;;;6.47;4.85;;;10.30;99.90;;;;;;5111003;28;20047;-68
2022/04/15 11:37:55;;;;;;;9.18;5.22;;;10.30;99.90;;;;;;5109871;28;20123;-69
2022/04/15 11:40:21;;;;;;;5.50;4.85;;;10.30;99.90;;;;;;5092381;28;20097;-69
2022/04/15 11:42:47;;;;;;;8.13;4.32;;;10.40;99.90;;;;;;5104232;28;20039;-69
2022/04/15 11:45:13;;;;;;;10.52;4.35;;;10.40;99.90;;;;;;5089094;28;20055;-69
2022/04/15 11:47:40;;;;;;;6.30;4.32;;;10.50;99.90;;;;;;5073722;28;20643;-69
2022/04/15 11:50:06;;;;;;;6.53;4.20;;;10.50;99.90;;;;;;5089782;28;20482;-70
2022/04/15 11:52:32;;;;;;;7.90;5.57;;;10.60;99.90;;;;;;5089445;28;20059;-69
2022/04/15 11:55:01;;;;;;;6.88;4.57;;;10.60;99.90;;;;;;5090121;28;20044;-69
2022/04/15 11:57:29;;;;;;;8.23;4.43;;;10.60;99.90;;;;;;5090807;28;20306;-68
2022/04/15 11:59:54;;;;;;;9.88;4.97;;;10.60;99.90;;;;;;5085838;28;20131;-68
2022/04/15 12:02:25;;;;;;;6.30;4.30;;;10.60;99.90;;;;;;5090362;28;20240;-68
2022/04/15 12:04:55;;;;;;;8.13;4.47;;;10.60;99.90;;;;;;5075082;28;20072;-68
2022/04/15 12:07:23;;;;;;;7.60;4.32;;;10.70;99.90;;;;;;5090142;28;20052;-68
2022/04/15 12:09:50;;;;;;;9.77;4.53;;;10.80;99.90;;;;;;5073929;28;20044;-69
2022/04/15 12:12:16;;;;;;;6.40;4.53;;;10.80;99.90;;;;;;5074230;28;20430;-70
2022/04/15 12:14:42;;;;;;;7.15;4.93;;;10.80;99.90;;;;;;5094188;28;20114;-71
2022/04/15 12:17:09;;;;;;;8.48;4.85;;;10.90;99.90;;;;;;5093810;28;20086;-69
2022/04/15 12:19:36;;;;;;;9.73;4.15;;;10.80;99.90;;;;;;5075125;28;20123;-69
2022/04/15 12:22:03;;;;;;;7.97;4.35;;;10.80;99.90;;;;;;5075598;28;20398;-70
2022/04/15 12:24:30;;;;;;;7.80;4.22;;;10.80;99.90;;;;;;5087028;28;20071;-69
2022/04/15 12:27:00;;;;;;;9.75;5.60;;;10.80;99.90;;;;;;5074816;28;20060;-70
2022/04/15 12:32:21;;;;;;;10.85;5.80;;;10.70;99.90;;;;;;5096673;27;20047;-69
2022/04/15 12:34:59;;;;;;;9.77;5.03;;;10.50;99.90;;;;;;5085138;28;20056;-69
2022/04/15 12:37:49;;;;;;;7.68;5.50;;;10.50;99.90;;;;;;5093685;28;20040;-69
2022/04/15 12:40:14;;;;;;;7.95;5.45;;;10.50;99.90;;;;;;5092893;28;20040;-68
2022/04/15 12:42:43;;;;;;;7.90;5.22;;;10.40;99.90;;;;;;5075815;28;20478;-69
2022/04/15 12:45:10;;;;;;;10.43;6.22;;;10.50;99.90;;;;;;5075347;28;20549;-69
2022/04/15 12:47:40;;;;;;;8.15;5.47;;;10.40;99.90;;;;;;5093170;28;20059;-69
2022/04/15 12:50:23;;;;;;;9.38;6.72;;;11.20;99.90;;;;;;5071262;28;20053;-69
2022/04/15 12:52:50;;;;;;;9.00;6.47;;;10.50;99.90;;;;;;5086352;28;20510;-69
2022/04/15 12:55:33;;;;;;;7.18;5.88;;;10.50;99.90;;;;;;5109443;28;20051;-69
2022/04/15 12:58:20;;;;;;;7.45;5.13;;;10.50;99.90;;;;;;5071659;28;20083;-69
2022/04/15 13:00:48;;;;;;;6.82;4.82;;;10.50;99.90;;;;;;5075918;28;20048;-69